sensor_id;sensor_type;location;lat;lon;timestamp;P1;durP1;ratioP1;P2;durP2;ratioP2
22737;SDS011;11536;50.860;4.286;2023-03-29T00:00:18;5.03;;;1.40;;
22737;SDS011;11536;50.860;4.286;2023-03-29T00:02:45;3.67;;;1.23;;
22737;SDS011;11536;50.860;4.286;2023-03-29T00:05:12;5.75;;;1.50;;
22737;SDS011;11536;50.860;4.286;2023-03-29T00:07:40;3.90;;;1.30;;
22737;SDS011;11536;50.860;4.286;2023-03-29T00:10:06;5.00;;;1.50;;
22737;SDS011;11536;50.860;4.286;2023-03-29T00:12:34;4.65;;;1.75;;
22737;SDS011;11536;50.860;4.286;2023-03-29T00:15:00;10.07;;;1.98;;
22737;SDS011;11536;50.860;4.286;2023-03-29T00:17:26;4.25;;;1.50;;
22737;SDS011;11536;50.860;4.286;2023-03-29T00:19:52;9.77;;;1.85;;
22737;SDS011;11536;50.860;4.286;2023-03-29T00:22:17;6.70;;;1.70;;
22737;SDS011;11536;50.860;4.286;2023-03-29T00:24:43;5.68;;;1.83;;
22737;SDS011;11536;50.860;4.286;2023-03-29T00:27:11;4.80;;;1.55;;
22737;SDS011;11536;50.860;4.286;2023-03-29T00:29:37;8.25;;;2.00;;
22737;SDS011;11536;50.860;4.286;2023-03-29T00:32:03;7.68;;;1.85;;
22737;SDS011;11536;50.860;4.286;2023-03-29T00:34:29;7.82;;;2.17;;
22737;SDS011;11536;50.860;4.286;2023-03-29T00:36:55;6.57;;;1.88;;
22737;SDS011;11536;50.860;4.286;2023-03-29T00:39:22;6.22;;;2.00;;
22737;SDS011;11536;50.860;4.286;2023-03-29T00:41:49;6.30;;;2.00;;
22737;SDS011;11536;50.860;4.286;2023-03-29T00:47:19;7.97;;;2.42;;
22737;SDS011;11536;50.860;4.286;2023-03-29T00:49:49;14.07;;;2.50;;
22737;SDS011;11536;50.860;4.286;2023-03-29T00:52:16;7.03;;;2.38;;
22737;SDS011;11536;50.860;4.286;2023-03-29T00:54:49;12.77;;;2.88;;
22737;SDS011;11536;50.860;4.286;2023-03-29T00:57:17;7.63;;;2.80;;
22737;SDS011;11536;50.860;4.286;2023-03-29T00:59:46;9.55;;;2.28;;
22737;SDS011;11536;50.860;4.286;2023-03-29T01:02:14;8.70;;;2.30;;
22737;SDS011;11536;50.860;4.286;2023-03-29T01:04:47;6.90;;;2.13;;
22737;SDS011;11536;50.860;4.286;2023-03-29T01:07:18;7.18;;;2.63;;
22737;SDS011;11536;50.860;4.286;2023-03-29T01:09:47;8.18;;;2.38;;
22737;SDS011;11536;50.860;4.286;2023-03-29T01:12:22;10.25;;;2.53;;
22737;SDS011;11536;50.860;4.286;2023-03-29T01:14:54;10.15;;;2.50;;
22737;SDS011;11536;50.860;4.286;2023-03-29T01:17:27;8.65;;;2.60;;
22737;SDS011;11536;50.860;4.286;2023-03-29T01:20:00;10.98;;;3.28;;
22737;SDS011;11536;50.860;4.286;2023-03-29T01:28:10;9.27;;;2.63;;
22737;SDS011;11536;50.860;4.286;2023-03-29T01:30:40;10.50;;;2.83;;
22737;SDS011;11536;50.860;4.286;2023-03-29T01:40:57;12.38;;;3.65;;
22737;SDS011;11536;50.860;4.286;2023-03-29T01:43:25;6.65;;;2.17;;
22737;SDS011;11536;50.860;4.286;2023-03-29T01:46:00;8.68;;;2.83;;
22737;SDS011;11536;50.860;4.286;2023-03-29T01:48:44;7.35;;;2.30;;
22737;SDS011;11536;50.860;4.286;2023-03-29T01:54:03;7.97;;;2.33;;
22737;SDS011;11536;50.860;4.286;2023-03-29T01:56:37;10.40;;;2.80;;
22737;SDS011;11536;50.860;4.286;2023-03-29T01:59:06;9.38;;;2.70;;
22737;SDS011;11536;50.860;4.286;2023-03-29T02:01:38;10.45;;;2.80;;
22737;SDS011;11536;50.860;4.286;2023-03-29T02:04:12;8.85;;;2.35;;
22737;SDS011;11536;50.860;4.286;2023-03-29T02:06:41;7.93;;;2.30;;
22737;SDS011;11536;50.860;4.286;2023-03-29T02:09:08;8.95;;;2.33;;
22737;SDS011;11536;50.860;4.286;2023-03-29T02:11:35;10.48;;;2.95;;
22737;SDS011;11536;50.860;4.286;2023-03-29T02:14:01;9.40;;;2.20;;
22737;SDS011;11536;50.860;4.286;2023-03-29T02:16:27;9.13;;;2.47;;
22737;SDS011;11536;50.860;4.286;2023-03-29T02:18:53;8.18;;;2.65;;
22737;SDS011;11536;50.860;4.286;2023-03-29T02:21:27;8.27;;;2.47;;
22737;SDS011;11536;50.860;4.286;2023-03-29T02:23:56;6.05;;;1.98;;
22737;SDS011;11536;50.860;4.286;2023-03-29T02:26:26;8.70;;;2.70;;
22737;SDS011;11536;50.860;4.286;2023-03-29T02:28:52;8.82;;;2.30;;
22737;SDS011;11536;50.860;4.286;2023-03-29T02:36:45;9.00;;;2.28;;
22737;SDS011;11536;50.860;4.286;2023-03-29T02:39:17;9.63;;;2.50;;
22737;SDS011;11536;50.860;4.286;2023-03-29T02:41:44;10.38;;;2.42;;
22737;SDS011;11536;50.860;4.286;2023-03-29T02:44:14;9.43;;;2.08;;
22737;SDS011;11536;50.860;4.286;2023-03-29T02:46:42;10.02;;;2.33;;
22737;SDS011;11536;50.860;4.286;2023-03-29T02:49:09;6.85;;;2.10;;
22737;SDS011;11536;50.860;4.286;2023-03-29T02:51:36;7.35;;;2.05;;
22737;SDS011;11536;50.860;4.286;2023-03-29T02:54:16;7.30;;;2.53;;
22737;SDS011;11536;50.860;4.286;2023-03-29T02:56:47;9.35;;;2.25;;
22737;SDS011;11536;50.860;4.286;2023-03-29T02:59:18;5.88;;;1.88;;
22737;SDS011;11536;50.860;4.286;2023-03-29T03:01:44;5.68;;;2.00;;
22737;SDS011;11536;50.860;4.286;2023-03-29T03:04:10;7.97;;;1.90;;
22737;SDS011;11536;50.860;4.286;2023-03-29T03:06:37;7.53;;;2.17;;
22737;SDS011;11536;50.860;4.286;2023-03-29T03:09:05;10.75;;;2.40;;
22737;SDS011;11536;50.860;4.286;2023-03-29T03:11:32;7.80;;;2.28;;
22737;SDS011;11536;50.860;4.286;2023-03-29T03:13:58;6.53;;;2.22;;
22737;SDS011;11536;50.860;4.286;2023-03-29T03:16:23;8.30;;;2.55;;
22737;SDS011;11536;50.860;4.286;2023-03-29T03:18:50;8.40;;;2.40;;
22737;SDS011;11536;50.860;4.286;2023-03-29T03:21:16;8.07;;;3.25;;
22737;SDS011;11536;50.860;4.286;2023-03-29T03:23:43;8.95;;;2.47;;
22737;SDS011;11536;50.860;4.286;2023-03-29T03:26:13;8.63;;;2.60;;
22737;SDS011;11536;50.860;4.286;2023-03-29T03:28:40;10.38;;;2.80;;
22737;SDS011;11536;50.860;4.286;2023-03-29T03:31:06;5.68;;;1.90;;
22737;SDS011;11536;50.860;4.286;2023-03-29T03:33:32;6.65;;;2.15;;
22737;SDS011;11536;50.860;4.286;2023-03-29T03:35:58;8.10;;;2.38;;
22737;SDS011;11536;50.860;4.286;2023-03-29T03:38:33;9.02;;;2.22;;
22737;SDS011;11536;50.860;4.286;2023-03-29T03:41:00;9.68;;;2.45;;
22737;SDS011;11536;50.860;4.286;2023-03-29T03:43:26;7.82;;;2.30;;
22737;SDS011;11536;50.860;4.286;2023-03-29T03:45:53;13.35;;;2.88;;
22737;SDS011;11536;50.860;4.286;2023-03-29T03:48:19;8.30;;;2.40;;
22737;SDS011;11536;50.860;4.286;2023-03-29T03:50:49;10.50;;;3.13;;
22737;SDS011;11536;50.860;4.286;2023-03-29T03:53:16;7.55;;;2.10;;
22737;SDS011;11536;50.860;4.286;2023-03-29T03:55:46;7.95;;;2.70;;
22737;SDS011;11536;50.860;4.286;2023-03-29T03:58:16;9.30;;;2.20;;
22737;SDS011;11536;50.860;4.286;2023-03-29T04:00:43;6.72;;;2.15;;
22737;SDS011;11536;50.860;4.286;2023-03-29T04:03:11;7.05;;;2.03;;
22737;SDS011;11536;50.860;4.286;2023-03-29T04:05:41;10.07;;;2.55;;
22737;SDS011;11536;50.860;4.286;2023-03-29T04:08:08;6.03;;;1.60;;
22737;SDS011;11536;50.860;4.286;2023-03-29T04:10:35;7.85;;;2.35;;
22737;SDS011;11536;50.860;4.286;2023-03-29T04:13:01;7.45;;;2.03;;
22737;SDS011;11536;50.860;4.286;2023-03-29T04:15:28;8.05;;;2.38;;
22737;SDS011;11536;50.860;4.286;2023-03-29T04:17:55;7.25;;;2.35;;
22737;SDS011;11536;50.860;4.286;2023-03-29T04:20:21;7.32;;;2.10;;
22737;SDS011;11536;50.860;4.286;2023-03-29T04:22:48;8.98;;;2.47;;
22737;SDS011;11536;50.860;4.286;2023-03-29T04:25:14;6.78;;;2.40;;
22737;SDS011;11536;50.860;4.286;2023-03-29T04:27:40;7.13;;;2.35;;
22737;SDS011;11536;50.860;4.286;2023-03-29T04:30:06;7.78;;;2.67;;
22737;SDS011;11536;50.860;4.286;2023-03-29T04:32:34;7.72;;;2.15;;
22737;SDS011;11536;50.860;4.286;2023-03-29T04:35:00;8.43;;;2.25;;
22737;SDS011;11536;50.860;4.286;2023-03-29T04:37:26;7.50;;;2.30;;
22737;SDS011;11536;50.860;4.286;2023-03-29T04:39:53;6.78;;;2.53;;
22737;SDS011;11536;50.860;4.286;2023-03-29T04:42:19;7.88;;;2.13;;
22737;SDS011;11536;50.860;4.286;2023-03-29T04:44:44;8.20;;;2.83;;
22737;SDS011;11536;50.860;4.286;2023-03-29T04:47:10;7.72;;;3.17;;
22737;SDS011;11536;50.860;4.286;2023-03-29T04:49:37;11.90;;;2.78;;
22737;SDS011;11536;50.860;4.286;2023-03-29T04:52:03;7.25;;;2.35;;
22737;SDS011;11536;50.860;4.286;2023-03-29T04:54:29;7.07;;;2.17;;
22737;SDS011;11536;50.860;4.286;2023-03-29T04:56:54;6.70;;;2.40;;
22737;SDS011;11536;50.860;4.286;2023-03-29T04:59:20;6.93;;;2.17;;
22737;SDS011;11536;50.860;4.286;2023-03-29T05:01:46;7.07;;;2.30;;
22737;SDS011;11536;50.860;4.286;2023-03-29T05:04:11;8.23;;;2.33;;
22737;SDS011;11536;50.860;4.286;2023-03-29T05:06:38;9.82;;;2.72;;
22737;SDS011;11536;50.860;4.286;2023-03-29T05:09:04;12.18;;;2.50;;
22737;SDS011;11536;50.860;4.286;2023-03-29T05:11:30;7.25;;;2.67;;
22737;SDS011;11536;50.860;4.286;2023-03-29T05:13:56;8.15;;;2.45;;
22737;SDS011;11536;50.860;4.286;2023-03-29T05:16:26;7.57;;;2.22;;
22737;SDS011;11536;50.860;4.286;2023-03-29T05:18:54;9.85;;;2.80;;
22737;SDS011;11536;50.860;4.286;2023-03-29T05:21:20;10.00;;;2.35;;
22737;SDS011;11536;50.860;4.286;2023-03-29T05:23:46;6.90;;;2.33;;
22737;SDS011;11536;50.860;4.286;2023-03-29T05:26:11;5.70;;;2.10;;
22737;SDS011;11536;50.860;4.286;2023-03-29T05:28:39;7.50;;;2.63;;
22737;SDS011;11536;50.860;4.286;2023-03-29T05:31:06;9.90;;;2.75;;
22737;SDS011;11536;50.860;4.286;2023-03-29T05:33:32;11.73;;;3.13;;
22737;SDS011;11536;50.860;4.286;2023-03-29T05:35:59;9.13;;;2.53;;
22737;SDS011;11536;50.860;4.286;2023-03-29T05:38:26;7.78;;;2.35;;
22737;SDS011;11536;50.860;4.286;2023-03-29T05:40:53;7.72;;;2.72;;
22737;SDS011;11536;50.860;4.286;2023-03-29T05:43:20;8.00;;;2.42;;
22737;SDS011;11536;50.860;4.286;2023-03-29T05:45:45;7.38;;;2.53;;
22737;SDS011;11536;50.860;4.286;2023-03-29T05:48:11;9.98;;;3.20;;
22737;SDS011;11536;50.860;4.286;2023-03-29T05:50:37;8.10;;;2.20;;
22737;SDS011;11536;50.860;4.286;2023-03-29T05:53:03;9.27;;;2.63;;
22737;SDS011;11536;50.860;4.286;2023-03-29T05:55:28;8.25;;;2.65;;
22737;SDS011;11536;50.860;4.286;2023-03-29T05:57:54;13.07;;;2.95;;
22737;SDS011;11536;50.860;4.286;2023-03-29T06:00:20;9.73;;;3.45;;
22737;SDS011;11536;50.860;4.286;2023-03-29T06:02:47;7.03;;;2.65;;
22737;SDS011;11536;50.860;4.286;2023-03-29T06:05:14;12.05;;;3.25;;
22737;SDS011;11536;50.860;4.286;2023-03-29T06:07:40;8.80;;;3.00;;
22737;SDS011;11536;50.860;4.286;2023-03-29T06:10:06;9.70;;;2.58;;
22737;SDS011;11536;50.860;4.286;2023-03-29T06:12:33;9.13;;;2.55;;
22737;SDS011;11536;50.860;4.286;2023-03-29T06:14:59;7.75;;;2.42;;
22737;SDS011;11536;50.860;4.286;2023-03-29T06:17:29;6.55;;;2.50;;
22737;SDS011;11536;50.860;4.286;2023-03-29T06:19:55;9.40;;;3.08;;
22737;SDS011;11536;50.860;4.286;2023-03-29T06:22:22;10.55;;;2.60;;
22737;SDS011;11536;50.860;4.286;2023-03-29T06:24:47;7.03;;;2.30;;
22737;SDS011;11536;50.860;4.286;2023-03-29T06:27:13;9.80;;;2.90;;
22737;SDS011;11536;50.860;4.286;2023-03-29T06:29:38;9.43;;;3.83;;
22737;SDS011;11536;50.860;4.286;2023-03-29T06:32:05;8.20;;;2.50;;
22737;SDS011;11536;50.860;4.286;2023-03-29T06:34:31;6.65;;;2.33;;
22737;SDS011;11536;50.860;4.286;2023-03-29T06:36:58;9.40;;;2.97;;
22737;SDS011;11536;50.860;4.286;2023-03-29T06:39:24;7.55;;;2.50;;
22737;SDS011;11536;50.860;4.286;2023-03-29T06:41:50;8.27;;;2.75;;
22737;SDS011;11536;50.860;4.286;2023-03-29T06:44:16;8.18;;;2.67;;
22737;SDS011;11536;50.860;4.286;2023-03-29T06:46:42;9.20;;;2.88;;
22737;SDS011;11536;50.860;4.286;2023-03-29T06:49:08;10.80;;;2.97;;
22737;SDS011;11536;50.860;4.286;2023-03-29T06:51:33;10.25;;;3.03;;
22737;SDS011;11536;50.860;4.286;2023-03-29T06:54:00;6.95;;;2.65;;
22737;SDS011;11536;50.860;4.286;2023-03-29T06:56:26;7.03;;;2.58;;
22737;SDS011;11536;50.860;4.286;2023-03-29T06:58:53;6.18;;;2.28;;
22737;SDS011;11536;50.860;4.286;2023-03-29T07:01:19;8.82;;;2.63;;
22737;SDS011;11536;50.860;4.286;2023-03-29T07:03:45;10.95;;;2.60;;
22737;SDS011;11536;50.860;4.286;2023-03-29T07:06:11;9.57;;;3.00;;
22737;SDS011;11536;50.860;4.286;2023-03-29T07:08:38;8.18;;;2.83;;
22737;SDS011;11536;50.860;4.286;2023-03-29T07:11:10;10.40;;;3.05;;
22737;SDS011;11536;50.860;4.286;2023-03-29T07:13:41;9.32;;;2.97;;
22737;SDS011;11536;50.860;4.286;2023-03-29T07:16:08;8.60;;;2.70;;
22737;SDS011;11536;50.860;4.286;2023-03-29T07:18:40;7.03;;;2.80;;
22737;SDS011;11536;50.860;4.286;2023-03-29T07:21:08;6.43;;;2.13;;
22737;SDS011;11536;50.860;4.286;2023-03-29T07:23:34;8.32;;;2.55;;
22737;SDS011;11536;50.860;4.286;2023-03-29T07:26:05;7.65;;;3.05;;
22737;SDS011;11536;50.860;4.286;2023-03-29T07:28:31;9.02;;;2.78;;
22737;SDS011;11536;50.860;4.286;2023-03-29T07:31:05;8.00;;;2.75;;
22737;SDS011;11536;50.860;4.286;2023-03-29T07:33:32;5.60;;;2.17;;
22737;SDS011;11536;50.860;4.286;2023-03-29T07:35:58;7.57;;;2.40;;
22737;SDS011;11536;50.860;4.286;2023-03-29T07:38:24;6.68;;;2.38;;
22737;SDS011;11536;50.860;4.286;2023-03-29T07:40:51;8.43;;;2.45;;
22737;SDS011;11536;50.860;4.286;2023-03-29T07:43:18;8.75;;;2.25;;
22737;SDS011;11536;50.860;4.286;2023-03-29T07:45:44;6.25;;;2.17;;
22737;SDS011;11536;50.860;4.286;2023-03-29T07:48:10;9.57;;;2.30;;
22737;SDS011;11536;50.860;4.286;2023-03-29T07:50:37;8.23;;;2.47;;
22737;SDS011;11536;50.860;4.286;2023-03-29T07:53:02;8.55;;;2.58;;
22737;SDS011;11536;50.860;4.286;2023-03-29T07:55:28;8.05;;;2.75;;
22737;SDS011;11536;50.860;4.286;2023-03-29T07:57:55;10.40;;;2.35;;
22737;SDS011;11536;50.860;4.286;2023-03-29T08:00:21;5.93;;;2.05;;
22737;SDS011;11536;50.860;4.286;2023-03-29T08:02:49;6.78;;;2.42;;
22737;SDS011;11536;50.860;4.286;2023-03-29T08:05:16;4.78;;;1.88;;
22737;SDS011;11536;50.860;4.286;2023-03-29T08:07:44;6.97;;;2.28;;
22737;SDS011;11536;50.860;4.286;2023-03-29T08:10:11;7.38;;;2.10;;
22737;SDS011;11536;50.860;4.286;2023-03-29T08:12:39;7.18;;;2.30;;
22737;SDS011;11536;50.860;4.286;2023-03-29T08:15:06;7.40;;;2.53;;
22737;SDS011;11536;50.860;4.286;2023-03-29T08:17:32;7.43;;;2.60;;
22737;SDS011;11536;50.860;4.286;2023-03-29T08:19:59;7.07;;;2.55;;
22737;SDS011;11536;50.860;4.286;2023-03-29T08:22:25;7.32;;;2.28;;
22737;SDS011;11536;50.860;4.286;2023-03-29T08:24:51;7.30;;;2.58;;
22737;SDS011;11536;50.860;4.286;2023-03-29T08:27:17;7.55;;;2.55;;
22737;SDS011;11536;50.860;4.286;2023-03-29T08:29:42;8.38;;;2.72;;
22737;SDS011;11536;50.860;4.286;2023-03-29T08:32:08;5.82;;;2.40;;
22737;SDS011;11536;50.860;4.286;2023-03-29T08:34:34;8.10;;;2.42;;
22737;SDS011;11536;50.860;4.286;2023-03-29T08:37:00;5.57;;;2.33;;
22737;SDS011;11536;50.860;4.286;2023-03-29T08:39:28;8.90;;;2.97;;
22737;SDS011;11536;50.860;4.286;2023-03-29T08:47:09;6.38;;;2.35;;
22737;SDS011;11536;50.860;4.286;2023-03-29T08:52:14;7.93;;;2.60;;
22737;SDS011;11536;50.860;4.286;2023-03-29T08:54:46;6.05;;;2.50;;
22737;SDS011;11536;50.860;4.286;2023-03-29T08:57:20;6.35;;;2.28;;
22737;SDS011;11536;50.860;4.286;2023-03-29T08:59:51;6.60;;;2.55;;
22737;SDS011;11536;50.860;4.286;2023-03-29T09:02:22;6.38;;;2.58;;
22737;SDS011;11536;50.860;4.286;2023-03-29T09:04:50;6.07;;;2.42;;
22737;SDS011;11536;50.860;4.286;2023-03-29T09:07:21;7.35;;;2.72;;
22737;SDS011;11536;50.860;4.286;2023-03-29T09:09:46;6.57;;;2.50;;
22737;SDS011;11536;50.860;4.286;2023-03-29T09:12:21;6.80;;;2.70;;
22737;SDS011;11536;50.860;4.286;2023-03-29T09:31:50;8.40;;;2.40;;
22737;SDS011;11536;50.860;4.286;2023-03-29T09:34:18;7.22;;;2.10;;
22737;SDS011;11536;50.860;4.286;2023-03-29T09:36:54;6.00;;;2.20;;
22737;SDS011;11536;50.860;4.286;2023-03-29T09:39:31;5.03;;;2.33;;
22737;SDS011;11536;50.860;4.286;2023-03-29T09:42:04;8.38;;;2.78;;
22737;SDS011;11536;50.860;4.286;2023-03-29T09:44:37;7.93;;;2.72;;
22737;SDS011;11536;50.860;4.286;2023-03-29T09:47:12;6.90;;;2.28;;
22737;SDS011;11536;50.860;4.286;2023-03-29T09:49:51;7.30;;;2.33;;
22737;SDS011;11536;50.860;4.286;2023-03-29T09:52:21;5.68;;;1.90;;
22737;SDS011;11536;50.860;4.286;2023-03-29T09:54:47;6.93;;;2.22;;
22737;SDS011;11536;50.860;4.286;2023-03-29T09:57:17;6.18;;;2.00;;
22737;SDS011;11536;50.860;4.286;2023-03-29T09:59:52;5.78;;;2.08;;
22737;SDS011;11536;50.860;4.286;2023-03-29T10:02:19;5.50;;;2.20;;
22737;SDS011;11536;50.860;4.286;2023-03-29T10:04:50;5.43;;;2.00;;
22737;SDS011;11536;50.860;4.286;2023-03-29T10:07:19;7.22;;;2.20;;
22737;SDS011;11536;50.860;4.286;2023-03-29T10:09:44;6.05;;;2.20;;
22737;SDS011;11536;50.860;4.286;2023-03-29T10:12:10;5.30;;;2.10;;
22737;SDS011;11536;50.860;4.286;2023-03-29T10:14:44;5.35;;;2.08;;
22737;SDS011;11536;50.860;4.286;2023-03-29T10:17:14;7.38;;;1.80;;
22737;SDS011;11536;50.860;4.286;2023-03-29T10:19:48;5.97;;;2.28;;
22737;SDS011;11536;50.860;4.286;2023-03-29T10:22:20;3.88;;;1.80;;
22737;SDS011;11536;50.860;4.286;2023-03-29T10:24:49;4.82;;;1.90;;
22737;SDS011;11536;50.860;4.286;2023-03-29T10:27:17;4.70;;;1.70;;
22737;SDS011;11536;50.860;4.286;2023-03-29T10:29:47;7.32;;;2.42;;
22737;SDS011;11536;50.860;4.286;2023-03-29T10:34:46;5.05;;;2.10;;
22737;SDS011;11536;50.860;4.286;2023-03-29T10:37:13;3.85;;;1.42;;
22737;SDS011;11536;50.860;4.286;2023-03-29T10:39:43;6.28;;;1.50;;
22737;SDS011;11536;50.860;4.286;2023-03-29T10:42:11;5.32;;;2.10;;
22737;SDS011;11536;50.860;4.286;2023-03-29T10:44:39;6.93;;;1.88;;
22737;SDS011;11536;50.860;4.286;2023-03-29T10:47:08;5.03;;;1.75;;
22737;SDS011;11536;50.860;4.286;2023-03-29T10:49:39;5.90;;;2.13;;
22737;SDS011;11536;50.860;4.286;2023-03-29T10:52:06;4.35;;;1.83;;
22737;SDS011;11536;50.860;4.286;2023-03-29T10:54:33;7.45;;;2.40;;
22737;SDS011;11536;50.860;4.286;2023-03-29T10:57:02;14.32;;;2.63;;
22737;SDS011;11536;50.860;4.286;2023-03-29T10:59:45;5.10;;;1.52;;
22737;SDS011;11536;50.860;4.286;2023-03-29T11:05:16;5.80;;;1.52;;
22737;SDS011;11536;50.860;4.286;2023-03-29T11:07:48;6.18;;;1.85;;
22737;SDS011;11536;50.860;4.286;2023-03-29T11:10:30;8.73;;;1.88;;
22737;SDS011;11536;50.860;4.286;2023-03-29T11:21:06;4.47;;;1.80;;
22737;SDS011;11536;50.860;4.286;2023-03-29T11:26:52;4.70;;;1.88;;
22737;SDS011;11536;50.860;4.286;2023-03-29T11:34:59;5.15;;;1.70;;
22737;SDS011;11536;50.860;4.286;2023-03-29T11:38:04;6.00;;;2.15;;
22737;SDS011;11536;50.860;4.286;2023-03-29T11:43:24;7.45;;;2.58;;
22737;SDS011;11536;50.860;4.286;2023-03-29T11:46:16;4.72;;;2.00;;
22737;SDS011;11536;50.860;4.286;2023-03-29T11:51:24;3.17;;;0.80;;
22737;SDS011;11536;50.860;4.286;2023-03-29T11:56:47;1.80;;;0.60;;
22737;SDS011;11536;50.860;4.286;2023-03-29T11:59:29;3.85;;;0.90;;
22737;SDS011;11536;50.860;4.286;2023-03-29T12:02:16;4.78;;;1.20;;
22737;SDS011;11536;50.860;4.286;2023-03-29T12:05:23;4.57;;;1.00;;
22737;SDS011;11536;50.860;4.286;2023-03-29T12:08:19;3.50;;;1.30;;
22737;SDS011;11536;50.860;4.286;2023-03-29T12:13:29;3.88;;;1.42;;
22737;SDS011;11536;50.860;4.286;2023-03-29T12:18:47;4.43;;;1.80;;
22737;SDS011;11536;50.860;4.286;2023-03-29T12:21:19;6.30;;;2.30;;
22737;SDS011;11536;50.860;4.286;2023-03-29T12:23:52;3.88;;;1.90;;
22737;SDS011;11536;50.860;4.286;2023-03-29T12:26:38;3.88;;;1.92;;
22737;SDS011;11536;50.860;4.286;2023-03-29T12:29:33;4.63;;;2.10;;
22737;SDS011;11536;50.860;4.286;2023-03-29T12:40:52;4.68;;;2.17;;
22737;SDS011;11536;50.860;4.286;2023-03-29T12:43:24;5.30;;;2.42;;
22737;SDS011;11536;50.860;4.286;2023-03-29T12:45:55;5.80;;;2.10;;
22737;SDS011;11536;50.860;4.286;2023-03-29T12:50:54;5.60;;;2.15;;
22737;SDS011;11536;50.860;4.286;2023-03-29T12:53:30;6.27;;;2.03;;
22737;SDS011;11536;50.860;4.286;2023-03-29T13:01:35;5.03;;;1.80;;
22737;SDS011;11536;50.860;4.286;2023-03-29T13:04:12;4.85;;;2.00;;
22737;SDS011;11536;50.860;4.286;2023-03-29T13:09:25;5.22;;;1.80;;
22737;SDS011;11536;50.860;4.286;2023-03-29T13:14:43;4.32;;;2.08;;
22737;SDS011;11536;50.860;4.286;2023-03-29T13:19:55;4.78;;;2.50;;
22737;SDS011;11536;50.860;4.286;2023-03-29T13:22:35;6.45;;;2.35;;
22737;SDS011;11536;50.860;4.286;2023-03-29T13:27:43;4.45;;;1.70;;
22737;SDS011;11536;50.860;4.286;2023-03-29T13:30:19;6.70;;;1.98;;
22737;SDS011;11536;50.860;4.286;2023-03-29T13:38:22;5.38;;;1.80;;
22737;SDS011;11536;50.860;4.286;2023-03-29T13:40:57;4.45;;;1.85;;
22737;SDS011;11536;50.860;4.286;2023-03-29T13:43:33;4.75;;;1.80;;
22737;SDS011;11536;50.860;4.286;2023-03-29T13:46:03;4.00;;;2.00;;
22737;SDS011;11536;50.860;4.286;2023-03-29T13:51:03;4.13;;;1.73;;
22737;SDS011;11536;50.860;4.286;2023-03-29T13:53:43;4.22;;;1.58;;
22737;SDS011;11536;50.860;4.286;2023-03-29T13:56:11;4.05;;;1.45;;
22737;SDS011;11536;50.860;4.286;2023-03-29T13:58:50;5.85;;;1.92;;
22737;SDS011;11536;50.860;4.286;2023-03-29T14:04:03;5.30;;;1.63;;
22737;SDS011;11536;50.860;4.286;2023-03-29T14:06:32;5.65;;;2.00;;
22737;SDS011;11536;50.860;4.286;2023-03-29T14:09:01;7.40;;;2.03;;
22737;SDS011;11536;50.860;4.286;2023-03-29T14:11:30;4.78;;;1.80;;
22737;SDS011;11536;50.860;4.286;2023-03-29T14:13:59;5.07;;;2.13;;
22737;SDS011;11536;50.860;4.286;2023-03-29T14:16:31;4.20;;;1.60;;
22737;SDS011;11536;50.860;4.286;2023-03-29T14:19:03;6.40;;;1.85;;
22737;SDS011;11536;50.860;4.286;2023-03-29T14:21:30;6.80;;;1.83;;
22737;SDS011;11536;50.860;4.286;2023-03-29T14:23:57;4.65;;;1.58;;
22737;SDS011;11536;50.860;4.286;2023-03-29T14:26:29;6.70;;;2.00;;
22737;SDS011;11536;50.860;4.286;2023-03-29T14:28:57;4.68;;;1.88;;
22737;SDS011;11536;50.860;4.286;2023-03-29T14:33:55;4.68;;;1.52;;
22737;SDS011;11536;50.860;4.286;2023-03-29T14:36:25;4.07;;;1.50;;
22737;SDS011;11536;50.860;4.286;2023-03-29T14:38:54;4.40;;;1.90;;
22737;SDS011;11536;50.860;4.286;2023-03-29T14:41:27;7.22;;;2.10;;
22737;SDS011;11536;50.860;4.286;2023-03-29T14:43:59;6.72;;;1.95;;
22737;SDS011;11536;50.860;4.286;2023-03-29T14:46:25;7.30;;;2.05;;
22737;SDS011;11536;50.860;4.286;2023-03-29T14:48:51;5.05;;;1.83;;
22737;SDS011;11536;50.860;4.286;2023-03-29T14:51:21;5.03;;;2.13;;
22737;SDS011;11536;50.860;4.286;2023-03-29T14:53:52;7.35;;;2.38;;
22737;SDS011;11536;50.860;4.286;2023-03-29T14:56:19;6.22;;;2.28;;
22737;SDS011;11536;50.860;4.286;2023-03-29T14:58:48;7.82;;;2.20;;
22737;SDS011;11536;50.860;4.286;2023-03-29T15:01:18;7.35;;;2.80;;
22737;SDS011;11536;50.860;4.286;2023-03-29T15:04:00;7.75;;;2.47;;
22737;SDS011;11536;50.860;4.286;2023-03-29T15:06:28;6.05;;;2.50;;
22737;SDS011;11536;50.860;4.286;2023-03-29T15:08:56;4.95;;;2.17;;
22737;SDS011;11536;50.860;4.286;2023-03-29T15:11:24;4.85;;;2.28;;
22737;SDS011;11536;50.860;4.286;2023-03-29T15:13:54;6.47;;;2.60;;
22737;SDS011;11536;50.860;4.286;2023-03-29T15:16:30;5.25;;;2.38;;
22737;SDS011;11536;50.860;4.286;2023-03-29T15:18:56;5.78;;;2.22;;
22737;SDS011;11536;50.860;4.286;2023-03-29T15:21:26;6.95;;;2.88;;
22737;SDS011;11536;50.860;4.286;2023-03-29T15:24:03;6.70;;;2.13;;
22737;SDS011;11536;50.860;4.286;2023-03-29T15:26:30;6.78;;;2.25;;
22737;SDS011;11536;50.860;4.286;2023-03-29T15:29:04;6.53;;;2.67;;
22737;SDS011;11536;50.860;4.286;2023-03-29T15:31:36;7.07;;;2.55;;
22737;SDS011;11536;50.860;4.286;2023-03-29T15:36:31;5.03;;;2.00;;
22737;SDS011;11536;50.860;4.286;2023-03-29T15:38:57;6.15;;;2.15;;
22737;SDS011;11536;50.860;4.286;2023-03-29T15:41:23;5.68;;;2.17;;
22737;SDS011;11536;50.860;4.286;2023-03-29T15:43:57;5.03;;;2.22;;
22737;SDS011;11536;50.860;4.286;2023-03-29T15:46:23;7.63;;;2.67;;
22737;SDS011;11536;50.860;4.286;2023-03-29T15:48:48;5.53;;;2.25;;
22737;SDS011;11536;50.860;4.286;2023-03-29T15:51:14;6.65;;;2.25;;
22737;SDS011;11536;50.860;4.286;2023-03-29T15:53:40;6.10;;;2.28;;
22737;SDS011;11536;50.860;4.286;2023-03-29T15:56:06;7.65;;;2.20;;
22737;SDS011;11536;50.860;4.286;2023-03-29T15:58:35;6.00;;;2.10;;
22737;SDS011;11536;50.860;4.286;2023-03-29T16:04:10;5.97;;;2.00;;
22737;SDS011;11536;50.860;4.286;2023-03-29T16:06:40;5.85;;;1.92;;
22737;SDS011;11536;50.860;4.286;2023-03-29T16:09:07;8.38;;;2.33;;
22737;SDS011;11536;50.860;4.286;2023-03-29T16:11:35;7.88;;;2.30;;
22737;SDS011;11536;50.860;4.286;2023-03-29T16:14:05;6.20;;;1.67;;
22737;SDS011;11536;50.860;4.286;2023-03-29T16:16:40;6.45;;;2.08;;
22737;SDS011;11536;50.860;4.286;2023-03-29T16:19:06;7.47;;;2.47;;
22737;SDS011;11536;50.860;4.286;2023-03-29T16:21:32;6.40;;;1.90;;
22737;SDS011;11536;50.860;4.286;2023-03-29T16:23:58;5.13;;;2.00;;
22737;SDS011;11536;50.860;4.286;2023-03-29T16:26:23;5.65;;;1.73;;
22737;SDS011;11536;50.860;4.286;2023-03-29T16:28:50;6.68;;;1.77;;
22737;SDS011;11536;50.860;4.286;2023-03-29T16:31:15;7.28;;;2.00;;
22737;SDS011;11536;50.860;4.286;2023-03-29T16:33:41;6.55;;;1.83;;
22737;SDS011;11536;50.860;4.286;2023-03-29T16:36:08;8.35;;;2.47;;
22737;SDS011;11536;50.860;4.286;2023-03-29T16:38:34;5.13;;;1.95;;
22737;SDS011;11536;50.860;4.286;2023-03-29T16:41:00;8.30;;;2.67;;
22737;SDS011;11536;50.860;4.286;2023-03-29T16:43:26;8.35;;;1.90;;
22737;SDS011;11536;50.860;4.286;2023-03-29T16:45:52;5.32;;;2.22;;
22737;SDS011;11536;50.860;4.286;2023-03-29T16:48:18;5.95;;;1.90;;
22737;SDS011;11536;50.860;4.286;2023-03-29T16:50:47;5.60;;;1.98;;
22737;SDS011;11536;50.860;4.286;2023-03-29T16:53:13;6.55;;;2.28;;
22737;SDS011;11536;50.860;4.286;2023-03-29T16:55:39;6.38;;;1.55;;
22737;SDS011;11536;50.860;4.286;2023-03-29T16:58:06;4.38;;;1.63;;
22737;SDS011;11536;50.860;4.286;2023-03-29T17:00:32;5.90;;;1.48;;
22737;SDS011;11536;50.860;4.286;2023-03-29T17:02:58;8.00;;;2.03;;
22737;SDS011;11536;50.860;4.286;2023-03-29T17:05:27;7.93;;;2.00;;
22737;SDS011;11536;50.860;4.286;2023-03-29T17:07:53;6.03;;;1.77;;